• Join FlightAware (Why Join?)
  • Login
  • US Flag 
01:08AM EDT


 

Airport Tracker/Info


-or-


 

Live Flight TrackerFlight Track Log ✈ AAL9405 ✈ 27/Dec/2012 ✈ KGNV - KMSY

Flight Track Log - Related Links

Times and Time Zones

All times are in EST time to prevent confusion due to time zone crossing. See the AAL9405 flight status page for this flight to view local times or setup timezone preferences in your user account.

Time Position Orientation Groundspeed Altitude Reporting Facility
EST Latitude Longitude Course Direction KTS MPH feet Rate Location/Type
10:57AM 29.6911 -82.2925 295° West 155 178 1,100  Level Jacksonville Center
10:58AM 29.7122 -82.3450 295° West 199 229 2,600 2,280 Climbing Jacksonville Center
10:59AM 29.7394 -82.4167 294° West 272 313 5,600 2,880 Climbing Jacksonville Center
11:00AM 29.7731 -82.4858 299° West 267 307 8,600 2,520 Climbing Jacksonville Center
11:01AM 29.7983 -82.5431 297° West 259 298 9,800 1,140 Climbing Jacksonville Center
11:02AM 29.8319 -82.6172 298° West 283 326 10,500 1,680 Climbing Jacksonville Center
11:03AM 29.8717 -82.7153 295° West 314 361 13,200 2,880 Climbing Jacksonville Center
11:04AM 29.9136 -82.8136 296° West 334 384 16,300 3,060 Climbing Jacksonville Center
11:05AM 29.9556 -82.9117 296° West 341 392 19,400 3,000 Climbing Jacksonville Center
11:06AM 29.9931 -83.0078 294° West 341 392 22,400 1,920 Climbing Jacksonville Center
11:07AM 30.0389 -83.1086 298° West 336 387 23,300 1,680 Climbing Jacksonville Center
11:08AM 30.0678 -83.2069 289° West 353 406 25,800 1,740 Climbing Jacksonville Center
11:09AM 30.0842 -83.3247 279° West 358 412 26,800 1,380 Climbing Jacksonville Center
11:10AM 30.1025 -83.4447 280° West 372 428 28,600 1,620 Climbing Jacksonville Center
11:11AM 30.1228 -83.5697 281° West 393 452 30,100 1,500 Climbing Jacksonville Center
11:12AM 30.1386 -83.6972 278° West 398 458 31,700 1,860 Climbing Jacksonville Center
11:13AM 30.1589 -83.8200 281° West 398 458 33,900 1,140 Climbing Jacksonville Center
11:14AM 30.1725 -83.9425 277° West 392 451 34,000 300 Climbing Jacksonville Center
11:15AM 30.1922 -84.0628 281° West 392 451 34,500 960 Climbing Jacksonville Center
11:16AM 30.2078 -84.1953 278° West 392 451 36,000 660 Climbing Jacksonville Center
11:17AM 30.2253 -84.3158 280° West 386 444 35,900 -60 Descending Jacksonville Center
11:18AM 30.2425 -84.4386 279° West 386 444 35,900  Level Jacksonville Center
11:19AM 30.2597 -84.5567 280° West 386 444 36,000  Climbing Jacksonville Center
11:20AM 30.2769 -84.6772 279° West 386 444 36,000  Level Jacksonville Center
11:21AM 30.2919 -84.7931 279° West 386 444 36,000  Level Jacksonville Center
11:22AM 30.3089 -84.9161 279° West 386 444 36,000  Level Jacksonville Center
11:23AM 30.3239 -85.0247 279° West 392 451 36,000 -60 Level Jacksonville Center
11:24AM 30.3406 -85.1453 279° West 387 445 35,900  Descending Jacksonville Center
11:25AM 30.3550 -85.2686 278° West 387 445 36,000  Climbing Jacksonville Center
11:26AM 30.3736 -85.3917 280° West 392 451 36,000  Level Jacksonville Center
11:27AM 30.3900 -85.5103 279° West 392 451 36,000 -60 Level Jacksonville Center
11:28AM 30.4039 -85.6358 277° West 392 451 35,900  Descending Jacksonville Center
11:29AM 30.4203 -85.7567 279° West 392 451 36,000  Climbing Jacksonville Center
11:30AM 30.4361 -85.8775 279° West 392 451 36,000 -60 Level Jacksonville Center
11:31AM 30.4519 -85.9986 279° West 392 451 35,900  Descending Jacksonville Center
11:32AM 30.4636 -86.1194 276° West 392 451 36,000  Climbing Jacksonville Center
11:33AM 30.4647 -86.2422 271° West 392 451 36,000  Level Jacksonville Center
11:34AM 30.4633 -86.3653 269° West 382 440 36,000  Level Jacksonville Center
11:35AM 30.4622 -86.4881 269° West 382 440 36,000  Level Jacksonville Center
11:36AM 30.4608 -86.6108 269° West 387 445 36,000 -60 Level Jacksonville Center
11:37AM 30.4592 -86.7336 269° West 387 445 35,900 -60 Descending Jacksonville Center
11:38AM 30.4553 -86.8589 268° West 387 445 35,900  Level Jacksonville Center
11:39AM 30.4536 -86.9817 269° West 382 440 36,000  Climbing Jacksonville Center
11:40AM 30.4517 -87.1044 269° West 382 440 36,000 -240 Level Jacksonville Center
11:41AM 30.4492 -87.3567 269° West 392 451 35,400 -540 Descending Houston Center
11:42AM 30.4444 -87.4797 267° West 386 444 34,500 -960 Descending Houston Center
11:43AM 30.4422 -87.6075 269° West 386 444 33,500 -960 Descending Houston Center
11:44AM 30.4397 -87.7353 269° West 391 450 32,600 -780 Descending Houston Center
11:45AM 30.4369 -87.8628 269° West 397 457 32,000 -300 Descending Houston Center
11:46AM 30.4322 -87.9906 268° West 397 457 32,000  Level Houston Center
11:47AM 30.4294 -88.1183 269° West 402 463 32,000  Level Houston Center
11:48AM 30.4264 -88.2486 268° West 402 463 32,000  Level Houston Center
11:49AM 30.4233 -88.3739 268° West 402 463 32,000  Level Houston Center
11:50AM 30.4203 -88.5039 268° West 402 463 32,000 -60 Level Houston Center
11:51AM 30.4169 -88.6317 268° West 402 463 31,900 -1,500 Descending Houston Center
11:52AM 30.4133 -88.7569 268° West 402 463 29,100 -2,520 Descending Houston Center
11:53AM 30.4097 -88.8822 268° West 402 463 26,900 -2,280 Descending Houston Center
11:54AM 30.4078 -89.0003 269° West 391 450 24,600 -2,280 Descending Houston Center
11:55AM 30.3933 -89.1114 261° West 378 435 22,400 -2,160 Descending Houston Center
11:56AM 30.3575 -89.2108 247° West 351 404 20,300 -2,160 Descending Houston Center
11:57AM 30.3375 -89.2572 243° Southwest 329 379 19,400 -2,100 Descending Houston Center
11:57AM 30.3256 -89.2958 250° West 328 377 18,600 -1,680 Descending Houston Center
11:58AM 30.2878 -89.3978 247° West 319 367 16,900 -1,920 Descending Houston Center
11:59AM 30.2517 -89.4947 247° West 331 381 14,500 -2,280 Descending Houston Center
12:00PM 30.2408 -89.5936 263° West 320 368 12,200 -2,100 Descending Houston Center
12:01PM 30.2339 -89.6828 265° West 315 362 10,400 -1,380 Descending Houston Center
12:03PM 30.2269 -89.7886 266° West 260 299 9,400 -1,440 Descending Houston Center
12:03PM 30.2197 -89.8656 264° West 248 285 7,600 -1,680 Descending Houston Center
12:04PM 30.2144 -89.9497 266° West 261 300 6,200 -1,500 Descending Houston Center
12:05PM 30.2072 -90.0317 264° West 257 296 4,600 -1,080 Descending Houston Center
12:06PM 30.2036 -90.0989 266° West 257 296 4,100 -840 Descending Houston Center
12:07PM 30.1878 -90.1689 255° West 245 282 3,000 -960 Descending Houston Center
12:08PM 30.1381 -90.2033 211° Southwest 210 242 2,200 -600 Descending Houston Center
12:09PM 30.0903 -90.2183 195° South 188 216 1,800 -600 Descending Houston Center
12:10PM 30.0508 -90.2308 195° South 168 193 1,100 -660 Descending Houston Center
12:11PM 30.0069 -90.2483 199° South 157 181 500 -600 Descending Houston Center
12:13PM 29.9934 -90.2580 245° Southwest  Level Estimated
12:20PM 29.9934 -90.2580 245° Southwest  Level Estimated
12:21PM 29.9934 -90.2580 245° Southwest  Level Estimated
12:22PM 29.9934 -90.2580 245° Southwest  Level Estimated
12:23PM 29.9934 -90.2580 245° Southwest  Level Estimated